Allen, South Dakota
Current Conditions -  °F | °C
As of 11:52 PM on Thursday 18 Dec 2014 (Local Time) from KIEN Reporting Station
Clear Clear  
Wind Chill: -4°   Ceiling: Unl
Heat Index: -4°   Visibility: 10mi
Dew Point: -9°   Wind: 3mph
Humidity: 71%   Direction: 250°WSW
Pressure: 30.04"   Gusts: NA
Location:  43.28°N, 101.93°W
Report Text: KIEN 190652Z AUTO 25003KT 10SM CLR M04/M09 A3004 RMK AO2 SLP204 T10441089 400281144
Loading
Personal Weather Stations






























Interactive Weather Map New forecast layout! Learn more

10-Day Weather Forecast

Advertisements
Track Severe Weather on mobile